sensor_id;sensor_type;location;lat;lon;timestamp;temperature;humidity
66710;DHT22;53624;0.000;0.000;2024-01-15T00:00:20;5.50;99.90
66710;DHT22;53624;0.000;0.000;2024-01-15T00:02:47;5.50;99.90
66710;DHT22;53624;0.000;0.000;2024-01-15T00:05:14;5.50;99.90
66710;DHT22;53624;0.000;0.000;2024-01-15T00:07:43;5.50;99.90
66710;DHT22;53624;0.000;0.000;2024-01-15T00:10:10;5.50;99.90
66710;DHT22;53624;0.000;0.000;2024-01-15T00:12:37;5.50;99.90
66710;DHT22;53624;0.000;0.000;2024-01-15T00:15:05;5.50;99.90
66710;DHT22;53624;0.000;0.000;2024-01-15T00:17:32;5.50;99.90
66710;DHT22;53624;0.000;0.000;2024-01-15T00:19:59;5.50;99.90
66710;DHT22;53624;0.000;0.000;2024-01-15T00:22:26;5.50;99.90
66710;DHT22;53624;0.000;0.000;2024-01-15T00:24:55;5.50;99.90
66710;DHT22;53624;0.000;0.000;2024-01-15T00:27:22;5.50;99.90
66710;DHT22;53624;0.000;0.000;2024-01-15T00:29:49;5.50;99.90
66710;DHT22;53624;0.000;0.000;2024-01-15T00:32:17;5.50;99.90
66710;DHT22;53624;0.000;0.000;2024-01-15T00:34:45;5.50;99.90
66710;DHT22;53624;0.000;0.000;2024-01-15T00:37:12;5.50;99.90
66710;DHT22;53624;0.000;0.000;2024-01-15T00:39:40;5.50;99.90
66710;DHT22;53624;0.000;0.000;2024-01-15T00:42:09;5.50;99.90
66710;DHT22;53624;0.000;0.000;2024-01-15T00:44:36;5.50;99.90
66710;DHT22;53624;0.000;0.000;2024-01-15T00:47:03;5.50;99.90
66710;DHT22;53624;0.000;0.000;2024-01-15T00:49:31;5.50;99.90
66710;DHT22;53624;0.000;0.000;2024-01-15T00:51:58;5.50;99.90
66710;DHT22;53624;0.000;0.000;2024-01-15T00:54:26;5.50;99.90
66710;DHT22;53624;0.000;0.000;2024-01-15T00:56:53;5.50;99.90
66710;DHT22;53624;0.000;0.000;2024-01-15T00:59:22;5.50;99.90
66710;DHT22;53624;0.000;0.000;2024-01-15T01:01:49;5.50;99.90
66710;DHT22;53624;0.000;0.000;2024-01-15T01:04:16;5.50;99.90
66710;DHT22;53624;0.000;0.000;2024-01-15T01:06:43;5.50;99.90
66710;DHT22;53624;0.000;0.000;2024-01-15T01:09:10;5.50;99.90
66710;DHT22;53624;0.000;0.000;2024-01-15T01:11:38;5.50;99.90
66710;DHT22;53624;0.000;0.000;2024-01-15T01:14:05;5.50;99.90
66710;DHT22;53624;0.000;0.000;2024-01-15T01:16:33;5.50;99.90
66710;DHT22;53624;0.000;0.000;2024-01-15T01:19:04;5.50;99.90
66710;DHT22;53624;0.000;0.000;2024-01-15T01:21:32;5.50;99.90
66710;DHT22;53624;0.000;0.000;2024-01-15T01:23:59;5.50;99.90
66710;DHT22;53624;0.000;0.000;2024-01-15T01:26:26;5.50;99.90
66710;DHT22;53624;0.000;0.000;2024-01-15T01:28:53;5.50;99.90
66710;DHT22;53624;0.000;0.000;2024-01-15T01:31:20;5.50;99.90
66710;DHT22;53624;0.000;0.000;2024-01-15T01:33:49;5.50;99.90
66710;DHT22;53624;0.000;0.000;2024-01-15T01:36:16;5.50;99.90
66710;DHT22;53624;0.000;0.000;2024-01-15T01:38:43;5.50;99.90
66710;DHT22;53624;0.000;0.000;2024-01-15T01:41:10;5.50;99.90
66710;DHT22;53624;0.000;0.000;2024-01-15T01:43:37;5.50;99.90
66710;DHT22;53624;0.000;0.000;2024-01-15T01:46:05;5.50;99.90
66710;DHT22;53624;0.000;0.000;2024-01-15T01:48:33;5.50;99.90
66710;DHT22;53624;0.000;0.000;2024-01-15T01:51:02;5.50;99.90
66710;DHT22;53624;0.000;0.000;2024-01-15T01:53:29;5.50;99.90
66710;DHT22;53624;0.000;0.000;2024-01-15T01:55:58;5.50;99.90
66710;DHT22;53624;0.000;0.000;2024-01-15T01:58:25;5.50;99.90
66710;DHT22;53624;0.000;0.000;2024-01-15T02:00:51;5.50;99.90
66710;DHT22;53624;0.000;0.000;2024-01-15T02:03:19;5.50;99.90
66710;DHT22;53624;0.000;0.000;2024-01-15T02:05:46;5.50;99.90
66710;DHT22;53624;0.000;0.000;2024-01-15T02:08:16;5.50;99.90
66710;DHT22;53624;0.000;0.000;2024-01-15T02:10:43;5.50;99.90
66710;DHT22;53624;0.000;0.000;2024-01-15T02:13:10;5.50;99.90
66710;DHT22;53624;0.000;0.000;2024-01-15T02:15:37;5.50;99.90
66710;DHT22;53624;0.000;0.000;2024-01-15T02:18:05;5.50;99.90
66710;DHT22;53624;0.000;0.000;2024-01-15T02:20:33;5.50;99.90
66710;DHT22;53624;0.000;0.000;2024-01-15T02:23:07;5.50;99.90
66710;DHT22;53624;0.000;0.000;2024-01-15T02:25:35;5.50;99.90
66710;DHT22;53624;0.000;0.000;2024-01-15T02:28:02;5.50;99.90
66710;DHT22;53624;0.000;0.000;2024-01-15T02:30:30;5.50;99.90
66710;DHT22;53624;0.000;0.000;2024-01-15T02:32:58;5.50;99.90
66710;DHT22;53624;0.000;0.000;2024-01-15T02:35:25;5.50;99.90
66710;DHT22;53624;0.000;0.000;2024-01-15T02:37:53;5.50;99.90
66710;DHT22;53624;0.000;0.000;2024-01-15T02:40:21;5.50;99.90
66710;DHT22;53624;0.000;0.000;2024-01-15T02:42:48;5.50;99.90
66710;DHT22;53624;0.000;0.000;2024-01-15T02:45:16;5.40;99.90
66710;DHT22;53624;0.000;0.000;2024-01-15T02:47:43;5.50;99.90
66710;DHT22;53624;0.000;0.000;2024-01-15T02:50:10;5.50;99.90
66710;DHT22;53624;0.000;0.000;2024-01-15T02:52:37;5.50;99.90
66710;DHT22;53624;0.000;0.000;2024-01-15T02:55:05;5.40;99.90
66710;DHT22;53624;0.000;0.000;2024-01-15T02:57:33;5.50;99.90
66710;DHT22;53624;0.000;0.000;2024-01-15T03:00:01;5.50;99.90
66710;DHT22;53624;0.000;0.000;2024-01-15T03:02:28;5.50;99.90
66710;DHT22;53624;0.000;0.000;2024-01-15T03:04:57;5.50;99.90
66710;DHT22;53624;0.000;0.000;2024-01-15T03:07:25;5.40;99.90
66710;DHT22;53624;0.000;0.000;2024-01-15T03:09:52;5.50;99.90
66710;DHT22;53624;0.000;0.000;2024-01-15T03:12:19;5.50;99.90
66710;DHT22;53624;0.000;0.000;2024-01-15T03:14:48;5.50;99.90
66710;DHT22;53624;0.000;0.000;2024-01-15T03:17:15;5.50;99.90
66710;DHT22;53624;0.000;0.000;2024-01-15T03:19:42;5.50;99.90
66710;DHT22;53624;0.000;0.000;2024-01-15T03:22:09;5.50;99.90
66710;DHT22;53624;0.000;0.000;2024-01-15T03:24:36;5.40;99.90
66710;DHT22;53624;0.000;0.000;2024-01-15T03:27:04;5.40;99.90
66710;DHT22;53624;0.000;0.000;2024-01-15T03:29:31;5.50;99.90
66710;DHT22;53624;0.000;0.000;2024-01-15T03:32:00;5.50;99.90
66710;DHT22;53624;0.000;0.000;2024-01-15T03:34:27;5.40;99.90
66710;DHT22;53624;0.000;0.000;2024-01-15T03:36:54;5.40;99.90
66710;DHT22;53624;0.000;0.000;2024-01-15T03:39:21;5.50;99.90
66710;DHT22;53624;0.000;0.000;2024-01-15T03:41:48;5.50;99.90
66710;DHT22;53624;0.000;0.000;2024-01-15T03:44:15;5.50;99.90
66710;DHT22;53624;0.000;0.000;2024-01-15T03:46:42;5.50;99.90
66710;DHT22;53624;0.000;0.000;2024-01-15T03:49:11;5.40;99.90
66710;DHT22;53624;0.000;0.000;2024-01-15T03:51:38;5.40;99.90
66710;DHT22;53624;0.000;0.000;2024-01-15T03:54:05;5.40;99.90
66710;DHT22;53624;0.000;0.000;2024-01-15T03:56:32;5.40;99.90
66710;DHT22;53624;0.000;0.000;2024-01-15T03:58:59;5.50;99.90
66710;DHT22;53624;0.000;0.000;2024-01-15T04:01:27;5.50;99.90
66710;DHT22;53624;0.000;0.000;2024-01-15T04:03:54;5.50;99.90
66710;DHT22;53624;0.000;0.000;2024-01-15T04:06:22;5.50;99.90
66710;DHT22;53624;0.000;0.000;2024-01-15T04:08:50;5.40;99.90
66710;DHT22;53624;0.000;0.000;2024-01-15T04:11:17;5.40;99.90
66710;DHT22;53624;0.000;0.000;2024-01-15T04:13:44;5.40;99.90
66710;DHT22;53624;0.000;0.000;2024-01-15T04:16:11;5.50;99.90
66710;DHT22;53624;0.000;0.000;2024-01-15T04:18:38;5.40;99.90
66710;DHT22;53624;0.000;0.000;2024-01-15T04:21:06;5.40;99.90
66710;DHT22;53624;0.000;0.000;2024-01-15T04:23:34;5.40;99.90
66710;DHT22;53624;0.000;0.000;2024-01-15T04:26:02;5.40;99.90
66710;DHT22;53624;0.000;0.000;2024-01-15T04:28:29;5.40;99.90
66710;DHT22;53624;0.000;0.000;2024-01-15T04:30:56;5.40;99.90
66710;DHT22;53624;0.000;0.000;2024-01-15T04:33:23;5.40;99.90
66710;DHT22;53624;0.000;0.000;2024-01-15T04:35:50;5.40;99.90
66710;DHT22;53624;0.000;0.000;2024-01-15T04:38:17;5.40;99.90
66710;DHT22;53624;0.000;0.000;2024-01-15T04:40:46;5.50;99.90
66710;DHT22;53624;0.000;0.000;2024-01-15T04:43:13;5.40;99.90
66710;DHT22;53624;0.000;0.000;2024-01-15T04:45:40;5.40;99.90
66710;DHT22;53624;0.000;0.000;2024-01-15T04:48:07;5.40;99.90
66710;DHT22;53624;0.000;0.000;2024-01-15T04:50:34;5.40;99.90
66710;DHT22;53624;0.000;0.000;2024-01-15T04:53:02;5.50;99.90
66710;DHT22;53624;0.000;0.000;2024-01-15T04:55:29;5.40;99.90
66710;DHT22;53624;0.000;0.000;2024-01-15T04:57:57;5.40;99.90
66710;DHT22;53624;0.000;0.000;2024-01-15T05:00:25;5.40;99.90
66710;DHT22;53624;0.000;0.000;2024-01-15T05:02:52;5.40;99.90
66710;DHT22;53624;0.000;0.000;2024-01-15T05:05:19;5.50;99.90
66710;DHT22;53624;0.000;0.000;2024-01-15T05:07:46;5.40;99.90
66710;DHT22;53624;0.000;0.000;2024-01-15T05:10:13;5.40;99.90
66710;DHT22;53624;0.000;0.000;2024-01-15T05:12:41;5.40;99.90
66710;DHT22;53624;0.000;0.000;2024-01-15T05:15:09;5.40;99.90
66710;DHT22;53624;0.000;0.000;2024-01-15T05:17:37;5.50;99.90
66710;DHT22;53624;0.000;0.000;2024-01-15T05:20:04;5.40;99.90
66710;DHT22;53624;0.000;0.000;2024-01-15T05:22:33;5.40;99.90
66710;DHT22;53624;0.000;0.000;2024-01-15T05:25:00;5.40;99.90
66710;DHT22;53624;0.000;0.000;2024-01-15T05:27:27;5.40;99.90
66710;DHT22;53624;0.000;0.000;2024-01-15T05:29:54;5.50;99.90
66710;DHT22;53624;0.000;0.000;2024-01-15T05:32:23;5.60;99.90
66710;DHT22;53624;0.000;0.000;2024-01-15T05:34:50;5.60;99.90
66710;DHT22;53624;0.000;0.000;2024-01-15T05:37:17;5.50;99.90
66710;DHT22;53624;0.000;0.000;2024-01-15T05:39:44;5.50;99.90
66710;DHT22;53624;0.000;0.000;2024-01-15T05:42:12;5.50;99.90
66710;DHT22;53624;0.000;0.000;2024-01-15T05:44:39;5.50;99.90
66710;DHT22;53624;0.000;0.000;2024-01-15T05:47:06;5.50;99.90
66710;DHT22;53624;0.000;0.000;2024-01-15T05:49:34;5.50;99.90
66710;DHT22;53624;0.000;0.000;2024-01-15T05:52:02;5.50;99.90
66710;DHT22;53624;0.000;0.000;2024-01-15T05:54:29;5.50;99.90
66710;DHT22;53624;0.000;0.000;2024-01-15T05:56:56;5.50;99.90
66710;DHT22;53624;0.000;0.000;2024-01-15T05:59:23;5.50;99.90
66710;DHT22;53624;0.000;0.000;2024-01-15T06:01:51;5.50;99.90
66710;DHT22;53624;0.000;0.000;2024-01-15T06:04:18;5.50;99.90
66710;DHT22;53624;0.000;0.000;2024-01-15T06:06:46;5.50;99.90
66710;DHT22;53624;0.000;0.000;2024-01-15T06:09:14;5.50;99.90
66710;DHT22;53624;0.000;0.000;2024-01-15T06:11:41;5.50;99.90
66710;DHT22;53624;0.000;0.000;2024-01-15T06:14:08;5.50;99.90
66710;DHT22;53624;0.000;0.000;2024-01-15T06:16:35;5.50;99.90
66710;DHT22;53624;0.000;0.000;2024-01-15T06:19:02;5.50;99.90
66710;DHT22;53624;0.000;0.000;2024-01-15T06:21:30;5.50;99.90
66710;DHT22;53624;0.000;0.000;2024-01-15T06:23:58;5.50;99.90
66710;DHT22;53624;0.000;0.000;2024-01-15T06:26:25;5.50;99.90
66710;DHT22;53624;0.000;0.000;2024-01-15T06:28:52;5.50;99.90
66710;DHT22;53624;0.000;0.000;2024-01-15T06:31:19;5.50;99.90
66710;DHT22;53624;0.000;0.000;2024-01-15T06:33:47;5.50;99.90
66710;DHT22;53624;0.000;0.000;2024-01-15T06:36:14;5.50;99.90
66710;DHT22;53624;0.000;0.000;2024-01-15T06:38:43;5.50;99.90
66710;DHT22;53624;0.000;0.000;2024-01-15T06:41:11;5.50;99.90
66710;DHT22;53624;0.000;0.000;2024-01-15T06:43:39;5.50;99.90
66710;DHT22;53624;0.000;0.000;2024-01-15T06:46:06;5.50;99.90
66710;DHT22;53624;0.000;0.000;2024-01-15T06:48:33;5.50;99.90
66710;DHT22;53624;0.000;0.000;2024-01-15T06:51:00;5.50;99.90
66710;DHT22;53624;0.000;0.000;2024-01-15T06:53:27;5.50;99.90
66710;DHT22;53624;0.000;0.000;2024-01-15T06:55:54;5.50;99.90
66710;DHT22;53624;0.000;0.000;2024-01-15T06:58:23;5.50;99.90
66710;DHT22;53624;0.000;0.000;2024-01-15T07:00:50;5.50;99.90
66710;DHT22;53624;0.000;0.000;2024-01-15T07:03:17;5.50;99.90
66710;DHT22;53624;0.000;0.000;2024-01-15T07:05:44;5.50;99.90
66710;DHT22;53624;0.000;0.000;2024-01-15T07:08:12;5.50;99.90
66710;DHT22;53624;0.000;0.000;2024-01-15T07:10:39;5.50;99.90
66710;DHT22;53624;0.000;0.000;2024-01-15T07:13:06;5.50;99.90
66710;DHT22;53624;0.000;0.000;2024-01-15T07:15:34;5.50;99.90
66710;DHT22;53624;0.000;0.000;2024-01-15T07:18:02;5.50;99.90
66710;DHT22;53624;0.000;0.000;2024-01-15T07:20:29;5.50;99.90
66710;DHT22;53624;0.000;0.000;2024-01-15T07:22:56;5.50;99.90
66710;DHT22;53624;0.000;0.000;2024-01-15T07:25:23;5.50;99.90
66710;DHT22;53624;0.000;0.000;2024-01-15T07:27:52;5.50;99.90
66710;DHT22;53624;0.000;0.000;2024-01-15T07:30:20;5.50;99.90
66710;DHT22;53624;0.000;0.000;2024-01-15T07:32:49;5.50;99.90
66710;DHT22;53624;0.000;0.000;2024-01-15T07:35:18;5.50;99.90
66710;DHT22;53624;0.000;0.000;2024-01-15T07:37:45;5.50;99.90
66710;DHT22;53624;0.000;0.000;2024-01-15T07:40:12;5.50;99.90
66710;DHT22;53624;0.000;0.000;2024-01-15T07:42:40;5.50;99.90
66710;DHT22;53624;0.000;0.000;2024-01-15T07:45:08;5.50;99.90
66710;DHT22;53624;0.000;0.000;2024-01-15T07:47:36;5.50;99.90
66710;DHT22;53624;0.000;0.000;2024-01-15T07:50:05;5.50;99.90
66710;DHT22;53624;0.000;0.000;2024-01-15T07:52:32;5.50;99.90
66710;DHT22;53624;0.000;0.000;2024-01-15T07:54:59;5.50;99.90
66710;DHT22;53624;0.000;0.000;2024-01-15T07:57:26;5.50;99.90
66710;DHT22;53624;0.000;0.000;2024-01-15T07:59:54;5.50;99.90
66710;DHT22;53624;0.000;0.000;2024-01-15T08:02:21;5.50;99.90
66710;DHT22;53624;0.000;0.000;2024-01-15T08:04:48;5.50;99.90
66710;DHT22;53624;0.000;0.000;2024-01-15T08:07:16;5.50;99.90
66710;DHT22;53624;0.000;0.000;2024-01-15T08:09:44;5.50;99.90
66710;DHT22;53624;0.000;0.000;2024-01-15T08:12:12;5.50;99.90
66710;DHT22;53624;0.000;0.000;2024-01-15T08:14:39;5.50;99.90
66710;DHT22;53624;0.000;0.000;2024-01-15T08:17:06;5.50;99.90
66710;DHT22;53624;0.000;0.000;2024-01-15T08:19:34;5.50;99.90
66710;DHT22;53624;0.000;0.000;2024-01-15T08:22:01;5.50;99.90
66710;DHT22;53624;0.000;0.000;2024-01-15T08:24:29;5.50;99.90
66710;DHT22;53624;0.000;0.000;2024-01-15T08:26:57;5.60;99.90
66710;DHT22;53624;0.000;0.000;2024-01-15T08:29:24;5.60;99.90
66710;DHT22;53624;0.000;0.000;2024-01-15T08:31:51;5.60;99.90
66710;DHT22;53624;0.000;0.000;2024-01-15T08:34:19;5.60;99.90
66710;DHT22;53624;0.000;0.000;2024-01-15T08:36:46;5.60;99.90
66710;DHT22;53624;0.000;0.000;2024-01-15T08:39:13;5.60;99.90
66710;DHT22;53624;0.000;0.000;2024-01-15T08:41:42;5.60;99.90
66710;DHT22;53624;0.000;0.000;2024-01-15T08:44:09;5.60;99.90
66710;DHT22;53624;0.000;0.000;2024-01-15T08:46:36;5.60;99.90
66710;DHT22;53624;0.000;0.000;2024-01-15T08:49:03;5.60;99.90
66710;DHT22;53624;0.000;0.000;2024-01-15T08:51:31;5.60;99.90
66710;DHT22;53624;0.000;0.000;2024-01-15T08:53:59;5.60;99.90
66710;DHT22;53624;0.000;0.000;2024-01-15T08:56:26;5.60;99.90
66710;DHT22;53624;0.000;0.000;2024-01-15T08:58:55;5.70;99.90
66710;DHT22;53624;0.000;0.000;2024-01-15T09:01:22;5.70;99.90
66710;DHT22;53624;0.000;0.000;2024-01-15T09:03:50;5.70;99.90
66710;DHT22;53624;0.000;0.000;2024-01-15T09:06:17;5.70;99.90
66710;DHT22;53624;0.000;0.000;2024-01-15T09:08:44;5.70;99.90
66710;DHT22;53624;0.000;0.000;2024-01-15T09:11:11;5.70;99.90
66710;DHT22;53624;0.000;0.000;2024-01-15T09:13:39;5.70;99.90
66710;DHT22;53624;0.000;0.000;2024-01-15T09:16:07;5.70;99.90
66710;DHT22;53624;0.000;0.000;2024-01-15T09:18:34;5.70;99.90
66710;DHT22;53624;0.000;0.000;2024-01-15T09:21:03;5.80;99.90
66710;DHT22;53624;0.000;0.000;2024-01-15T09:23:30;5.80;99.90
66710;DHT22;53624;0.000;0.000;2024-01-15T09:25:58;5.80;99.90
66710;DHT22;53624;0.000;0.000;2024-01-15T09:28:25;5.80;99.90
66710;DHT22;53624;0.000;0.000;2024-01-15T09:30:52;5.80;99.90
66710;DHT22;53624;0.000;0.000;2024-01-15T09:33:20;5.90;99.90
66710;DHT22;53624;0.000;0.000;2024-01-15T09:35:48;5.90;99.90
66710;DHT22;53624;0.000;0.000;2024-01-15T09:38:15;5.90;99.90
66710;DHT22;53624;0.000;0.000;2024-01-15T09:40:44;5.90;99.90
66710;DHT22;53624;0.000;0.000;2024-01-15T09:43:12;5.90;99.90
66710;DHT22;53624;0.000;0.000;2024-01-15T09:45:39;5.90;99.90
66710;DHT22;53624;0.000;0.000;2024-01-15T09:48:07;5.90;99.90
66710;DHT22;53624;0.000;0.000;2024-01-15T09:50:36;6.00;99.90
66710;DHT22;53624;0.000;0.000;2024-01-15T09:53:03;6.00;99.90
66710;DHT22;53624;0.000;0.000;2024-01-15T09:55:31;6.00;99.90
66710;DHT22;53624;0.000;0.000;2024-01-15T09:57:59;6.00;99.90
66710;DHT22;53624;0.000;0.000;2024-01-15T10:00:27;6.00;99.90
66710;DHT22;53624;0.000;0.000;2024-01-15T10:02:54;6.00;99.90
66710;DHT22;53624;0.000;0.000;2024-01-15T10:05:21;6.00;99.90
66710;DHT22;53624;0.000;0.000;2024-01-15T10:07:50;6.00;99.90
66710;DHT22;53624;0.000;0.000;2024-01-15T10:10:18;6.00;99.90
66710;DHT22;53624;0.000;0.000;2024-01-15T10:12:45;6.10;99.90
66710;DHT22;53624;0.000;0.000;2024-01-15T10:15:12;6.10;99.90
66710;DHT22;53624;0.000;0.000;2024-01-15T10:17:40;6.10;99.90
66710;DHT22;53624;0.000;0.000;2024-01-15T10:20:08;6.10;99.90
66710;DHT22;53624;0.000;0.000;2024-01-15T10:22:35;6.10;99.90
66710;DHT22;53624;0.000;0.000;2024-01-15T10:25:05;6.10;99.90
66710;DHT22;53624;0.000;0.000;2024-01-15T10:27:32;6.10;99.90
66710;DHT22;53624;0.000;0.000;2024-01-15T10:30:00;6.10;99.90
66710;DHT22;53624;0.000;0.000;2024-01-15T10:32:28;6.10;99.90
66710;DHT22;53624;0.000;0.000;2024-01-15T10:34:55;6.10;99.90
66710;DHT22;53624;0.000;0.000;2024-01-15T10:37:23;6.20;99.90
66710;DHT22;53624;0.000;0.000;2024-01-15T10:39:51;6.20;99.90
66710;DHT22;53624;0.000;0.000;2024-01-15T10:42:19;6.20;99.90
66710;DHT22;53624;0.000;0.000;2024-01-15T10:44:47;6.20;99.90
66710;DHT22;53624;0.000;0.000;2024-01-15T10:47:14;6.20;99.90
66710;DHT22;53624;0.000;0.000;2024-01-15T10:49:41;6.20;99.90
66710;DHT22;53624;0.000;0.000;2024-01-15T10:52:08;6.20;99.90
66710;DHT22;53624;0.000;0.000;2024-01-15T10:54:35;6.20;99.90
66710;DHT22;53624;0.000;0.000;2024-01-15T10:57:04;6.20;99.90
66710;DHT22;53624;0.000;0.000;2024-01-15T10:59:32;6.20;99.90
66710;DHT22;53624;0.000;0.000;2024-01-15T11:02:00;6.30;99.90
66710;DHT22;53624;0.000;0.000;2024-01-15T11:04:27;6.30;99.90
66710;DHT22;53624;0.000;0.000;2024-01-15T11:06:55;6.30;99.90
66710;DHT22;53624;0.000;0.000;2024-01-15T11:09:22;6.40;99.90
66710;DHT22;53624;0.000;0.000;2024-01-15T11:11:52;6.40;99.90
66710;DHT22;53624;0.000;0.000;2024-01-15T11:14:38;6.50;99.90
66710;DHT22;53624;0.000;0.000;2024-01-15T11:17:05;6.50;99.90
66710;DHT22;53624;0.000;0.000;2024-01-15T11:19:35;6.50;99.90
66710;DHT22;53624;0.000;0.000;2024-01-15T11:22:03;6.40;99.90
66710;DHT22;53624;0.000;0.000;2024-01-15T11:24:35;6.50;99.90
66710;DHT22;53624;0.000;0.000;2024-01-15T11:27:03;6.50;99.90
66710;DHT22;53624;0.000;0.000;2024-01-15T11:29:30;6.60;99.90
66710;DHT22;53624;0.000;0.000;2024-01-15T11:32:00;6.60;99.90
66710;DHT22;53624;0.000;0.000;2024-01-15T11:37:14;6.60;99.90
66710;DHT22;53624;0.000;0.000;2024-01-15T11:39:41;6.50;99.90
66710;DHT22;53624;0.000;0.000;2024-01-15T11:42:12;6.50;99.90
66710;DHT22;53624;0.000;0.000;2024-01-15T11:44:40;6.50;99.90
66710;DHT22;53624;0.000;0.000;2024-01-15T11:47:09;6.50;99.90
66710;DHT22;53624;0.000;0.000;2024-01-15T11:49:48;6.50;99.90
66710;DHT22;53624;0.000;0.000;2024-01-15T11:52:20;6.50;99.90
66710;DHT22;53624;0.000;0.000;2024-01-15T11:54:48;6.50;99.90
66710;DHT22;53624;0.000;0.000;2024-01-15T11:57:17;6.50;99.90
66710;DHT22;53624;0.000;0.000;2024-01-15T11:59:46;6.50;99.90
66710;DHT22;53624;0.000;0.000;2024-01-15T12:02:16;6.50;99.90
66710;DHT22;53624;0.000;0.000;2024-01-15T12:04:43;6.50;99.90
66710;DHT22;53624;0.000;0.000;2024-01-15T12:07:10;6.50;99.90
66710;DHT22;53624;0.000;0.000;2024-01-15T12:09:42;6.50;99.90
66710;DHT22;53624;0.000;0.000;2024-01-15T12:12:09;6.50;99.90
66710;DHT22;53624;0.000;0.000;2024-01-15T12:14:40;6.50;99.90
66710;DHT22;53624;0.000;0.000;2024-01-15T12:17:07;6.60;99.90
66710;DHT22;53624;0.000;0.000;2024-01-15T12:19:37;6.60;99.90
66710;DHT22;53624;0.000;0.000;2024-01-15T12:22:04;6.60;99.90
66710;DHT22;53624;0.000;0.000;2024-01-15T12:24:32;6.60;99.90
66710;DHT22;53624;0.000;0.000;2024-01-15T12:26:59;6.60;99.90
66710;DHT22;53624;0.000;0.000;2024-01-15T12:29:26;6.60;99.90
66710;DHT22;53624;0.000;0.000;2024-01-15T12:31:53;6.70;99.90
66710;DHT22;53624;0.000;0.000;2024-01-15T12:34:21;6.70;99.90
66710;DHT22;53624;0.000;0.000;2024-01-15T12:36:50;6.70;99.90
66710;DHT22;53624;0.000;0.000;2024-01-15T12:39:17;6.70;99.90
66710;DHT22;53624;0.000;0.000;2024-01-15T12:41:44;6.70;99.90
66710;DHT22;53624;0.000;0.000;2024-01-15T12:44:12;6.70;99.90
66710;DHT22;53624;0.000;0.000;2024-01-15T12:46:39;6.70;99.90
66710;DHT22;53624;0.000;0.000;2024-01-15T12:49:07;6.70;99.90
66710;DHT22;53624;0.000;0.000;2024-01-15T12:51:34;6.70;99.90
66710;DHT22;53624;0.000;0.000;2024-01-15T12:54:03;6.70;99.90
66710;DHT22;53624;0.000;0.000;2024-01-15T12:56:30;6.70;99.90
66710;DHT22;53624;0.000;0.000;2024-01-15T12:58:57;6.80;99.90
66710;DHT22;53624;0.000;0.000;2024-01-15T13:01:25;6.80;99.90
66710;DHT22;53624;0.000;0.000;2024-01-15T13:03:52;6.80;99.90
66710;DHT22;53624;0.000;0.000;2024-01-15T13:06:19;6.80;99.90
66710;DHT22;53624;0.000;0.000;2024-01-15T13:08:46;6.80;99.90
66710;DHT22;53624;0.000;0.000;2024-01-15T13:11:15;6.80;99.90
66710;DHT22;53624;0.000;0.000;2024-01-15T13:13:43;6.80;99.90
66710;DHT22;53624;0.000;0.000;2024-01-15T13:16:10;6.80;99.90
66710;DHT22;53624;0.000;0.000;2024-01-15T13:18:37;6.80;99.90
66710;DHT22;53624;0.000;0.000;2024-01-15T13:21:05;6.80;99.90
66710;DHT22;53624;0.000;0.000;2024-01-15T13:23:32;6.80;99.90
66710;DHT22;53624;0.000;0.000;2024-01-15T13:25:59;6.80;99.90
66710;DHT22;53624;0.000;0.000;2024-01-15T13:28:27;6.80;99.90
66710;DHT22;53624;0.000;0.000;2024-01-15T13:30:55;6.80;99.90
66710;DHT22;53624;0.000;0.000;2024-01-15T13:33:22;6.80;99.90
66710;DHT22;53624;0.000;0.000;2024-01-15T13:35:49;6.80;99.90
66710;DHT22;53624;0.000;0.000;2024-01-15T13:38:16;6.80;99.90
66710;DHT22;53624;0.000;0.000;2024-01-15T13:40:44;6.80;99.90
66710;DHT22;53624;0.000;0.000;2024-01-15T13:43:11;6.80;99.90
66710;DHT22;53624;0.000;0.000;2024-01-15T13:45:42;6.80;99.90
66710;DHT22;53624;0.000;0.000;2024-01-15T13:48:09;6.80;99.90
66710;DHT22;53624;0.000;0.000;2024-01-15T13:50:36;6.90;99.90
66710;DHT22;53624;0.000;0.000;2024-01-15T13:53:03;6.80;99.90
66710;DHT22;53624;0.000;0.000;2024-01-15T13:55:31;6.80;99.90
66710;DHT22;53624;0.000;0.000;2024-01-15T13:57:58;6.90;99.90
66710;DHT22;53624;0.000;0.000;2024-01-15T14:00:25;6.90;99.90
66710;DHT22;53624;0.000;0.000;2024-01-15T14:02:54;6.90;99.90
66710;DHT22;53624;0.000;0.000;2024-01-15T14:05:21;6.90;99.90
66710;DHT22;53624;0.000;0.000;2024-01-15T14:07:48;6.90;99.90
66710;DHT22;53624;0.000;0.000;2024-01-15T14:10:15;6.90;99.90
66710;DHT22;53624;0.000;0.000;2024-01-15T14:12:43;6.90;99.90
66710;DHT22;53624;0.000;0.000;2024-01-15T14:15:10;6.90;99.90
66710;DHT22;53624;0.000;0.000;2024-01-15T14:17:37;6.90;99.90
66710;DHT22;53624;0.000;0.000;2024-01-15T14:20:06;6.90;99.90
66710;DHT22;53624;0.000;0.000;2024-01-15T14:22:35;6.90;99.90
66710;DHT22;53624;0.000;0.000;2024-01-15T14:25:02;6.90;99.90
66710;DHT22;53624;0.000;0.000;2024-01-15T14:27:30;6.90;99.90
66710;DHT22;53624;0.000;0.000;2024-01-15T14:29:58;6.90;99.90
66710;DHT22;53624;0.000;0.000;2024-01-15T14:32:25;6.90;99.90
66710;DHT22;53624;0.000;0.000;2024-01-15T14:34:53;6.90;99.90
66710;DHT22;53624;0.000;0.000;2024-01-15T14:37:21;6.90;99.90
66710;DHT22;53624;0.000;0.000;2024-01-15T14:39:48;6.90;99.90
66710;DHT22;53624;0.000;0.000;2024-01-15T14:42:15;6.90;99.90
66710;DHT22;53624;0.000;0.000;2024-01-15T14:44:43;6.80;99.90
66710;DHT22;53624;0.000;0.000;2024-01-15T14:47:10;6.90;99.90
66710;DHT22;53624;0.000;0.000;2024-01-15T14:49:37;6.80;99.90
66710;DHT22;53624;0.000;0.000;2024-01-15T14:52:04;6.80;99.90
66710;DHT22;53624;0.000;0.000;2024-01-15T14:54:33;6.80;99.90
66710;DHT22;53624;0.000;0.000;2024-01-15T14:57:00;6.80;99.90
66710;DHT22;53624;0.000;0.000;2024-01-15T14:59:27;6.80;99.90
66710;DHT22;53624;0.000;0.000;2024-01-15T15:01:55;6.80;99.90
66710;DHT22;53624;0.000;0.000;2024-01-15T15:04:22;6.80;99.90
66710;DHT22;53624;0.000;0.000;2024-01-15T15:06:50;6.80;99.90
66710;DHT22;53624;0.000;0.000;2024-01-15T15:09:17;6.80;99.90
66710;DHT22;53624;0.000;0.000;2024-01-15T15:11:45;6.80;99.90
66710;DHT22;53624;0.000;0.000;2024-01-15T15:14:12;6.80;99.90
66710;DHT22;53624;0.000;0.000;2024-01-15T15:16:40;6.80;99.90
66710;DHT22;53624;0.000;0.000;2024-01-15T15:19:07;6.80;99.90
66710;DHT22;53624;0.000;0.000;2024-01-15T15:21:34;6.80;99.90
66710;DHT22;53624;0.000;0.000;2024-01-15T15:24:01;6.70;99.90
66710;DHT22;53624;0.000;0.000;2024-01-15T15:26:28;6.70;99.90
66710;DHT22;53624;0.000;0.000;2024-01-15T15:28:57;6.70;99.90
66710;DHT22;53624;0.000;0.000;2024-01-15T15:31:24;6.70;99.90
66710;DHT22;53624;0.000;0.000;2024-01-15T15:33:51;6.70;99.90
66710;DHT22;53624;0.000;0.000;2024-01-15T15:36:18;6.70;99.90
66710;DHT22;53624;0.000;0.000;2024-01-15T15:38:45;6.70;99.90
66710;DHT22;53624;0.000;0.000;2024-01-15T15:41:13;6.70;99.90
66710;DHT22;53624;0.000;0.000;2024-01-15T15:43:40;6.70;99.90
66710;DHT22;53624;0.000;0.000;2024-01-15T15:46:09;6.70;99.90
66710;DHT22;53624;0.000;0.000;2024-01-15T15:48:36;6.60;99.90
66710;DHT22;53624;0.000;0.000;2024-01-15T15:51:03;6.60;99.90
66710;DHT22;53624;0.000;0.000;2024-01-15T15:53:30;6.60;99.90
66710;DHT22;53624;0.000;0.000;2024-01-15T15:55:57;6.60;99.90
66710;DHT22;53624;0.000;0.000;2024-01-15T15:58:24;6.60;99.90
66710;DHT22;53624;0.000;0.000;2024-01-15T16:00:51;6.60;99.90
66710;DHT22;53624;0.000;0.000;2024-01-15T16:03:20;6.60;99.90
66710;DHT22;53624;0.000;0.000;2024-01-15T16:05:47;6.60;99.90